Time;durP1;ratioP1;P1;durP2;ratioP2;P2;SDS_P1;SDS_P2;PMS_P1;PMS_P2;Temp;Humidity;BMP_temperature;BMP_pressure;BME280_temperature;BME280_humidity;BME280_pressure;Samples;Min_cycle;Max_cycle;Signal;HPM_P1;HPM_P2
2024/01/31 00:00:19;;;;;;;5.15;1.25;;;;;;;4.91;100.00;102479.81;5010683;28;20185;-46
2024/01/31 00:02:45;;;;;;;5.20;1.38;;;;;;;4.98;100.00;102477.22;5014412;28;20211;-44
2024/01/31 00:05:14;;;;;;;3.60;1.50;;;;;;;4.91;100.00;102487.78;5010744;28;20267;-44
2024/01/31 00:07:41;;;;;;;2.80;1.02;;;;;;;4.88;100.00;102487.75;5010126;28;20633;-45
2024/01/31 00:10:08;;;;;;;5.35;1.58;;;;;;;4.93;100.00;102496.66;5010690;28;20709;-45
2024/01/31 00:12:33;;;;;;;4.63;1.00;;;;;;;4.85;100.00;102489.47;5008892;28;20189;-44
2024/01/31 00:14:59;;;;;;;1.52;1.10;;;;;;;4.87;100.00;102498.34;5010723;28;20211;-43
2024/01/31 00:17:24;;;;;;;2.65;0.93;;;;;;;4.95;100.00;102508.19;5011803;28;20196;-46
2024/01/31 00:19:50;;;;;;;5.43;1.10;;;;;;;4.92;100.00;102507.28;5010395;28;20188;-44
2024/01/31 00:22:16;;;;;;;2.63;1.30;;;;;;;4.83;100.00;102520.41;4992480;28;20670;-44
2024/01/31 00:24:42;;;;;;;3.88;1.45;;;;;;;4.80;100.00;102515.09;5010796;28;20193;-45
2024/01/31 00:27:07;;;;;;;5.45;1.67;;;;;;;4.82;100.00;102506.25;5012207;28;20200;-44
2024/01/31 00:29:33;;;;;;;7.97;1.50;;;;;;;4.79;100.00;102506.22;4998269;28;20652;-44
2024/01/31 00:31:58;;;;;;;5.85;1.23;;;;;;;4.88;100.00;102514.31;5010448;28;20199;-44
2024/01/31 00:34:24;;;;;;;5.00;1.40;;;;;;;4.84;100.00;102509.81;5010733;28;20239;-43
2024/01/31 00:36:50;;;;;;;6.20;1.23;;;;;;;4.76;100.00;102524.75;5009595;28;20212;-43
2024/01/31 00:39:15;;;;;;;4.20;1.20;;;;;;;4.88;100.00;102521.38;4992285;28;20258;-45
2024/01/31 00:41:41;;;;;;;3.55;1.13;;;;;;;4.84;100.00;102519.56;5012194;28;20701;-46
2024/01/31 00:44:06;;;;;;;2.15;1.58;;;;;;;4.83;100.00;102533.69;5010136;28;20196;-47
2024/01/31 00:46:32;;;;;;;8.07;1.30;;;;;;;4.79;100.00;102530.13;5012821;28;20295;-44
2024/01/31 00:48:57;;;;;;;5.32;1.27;;;;;;;4.78;100.00;102538.94;5010728;28;20196;-45
2024/01/31 00:51:23;;;;;;;4.63;1.10;;;;;;;4.76;100.00;102530.06;5009800;28;20188;-44
2024/01/31 00:53:48;;;;;;;12.20;1.83;;;;;;;4.79;100.00;102540.75;5010158;28;20172;-42
2024/01/31 00:56:14;;;;;;;7.55;1.02;;;;;;;4.80;100.00;102545.19;5007769;28;20200;-45
2024/01/31 00:58:39;;;;;;;4.10;1.20;;;;;;;4.78;100.00;102549.56;5010148;28;20200;-44
2024/01/31 01:01:05;;;;;;;6.57;1.15;;;;;;;4.78;100.00;102560.19;5011184;28;20203;-42
2024/01/31 01:03:30;;;;;;;2.88;1.23;;;;;;;4.72;100.00;102550.41;5010622;28;20189;-46
2024/01/31 01:05:56;;;;;;;5.97;1.02;;;;;;;4.70;100.00;102554.78;5009783;28;20303;-42
2024/01/31 01:08:21;;;;;;;2.85;0.93;;;;;;;4.74;100.00;102571.63;5010034;28;20587;-44
2024/01/31 01:10:47;;;;;;;3.05;1.05;;;;;;;4.73;100.00;102572.53;5009507;28;20181;-44
2024/01/31 01:13:12;;;;;;;2.97;0.90;;;;;;;4.71;100.00;102566.31;4990369;28;20231;-43
2024/01/31 01:15:38;;;;;;;3.90;1.30;;;;;;;4.74;100.00;102576.94;5010539;28;20193;-45
2024/01/31 01:18:04;;;;;;;3.65;0.98;;;;;;;4.73;100.00;102578.72;4991634;28;20207;-42
2024/01/31 01:20:29;;;;;;;4.75;1.20;;;;;;;4.64;100.00;102593.66;5009129;28;20196;-45
2024/01/31 01:22:55;;;;;;;6.53;1.38;;;;;;;4.67;100.00;102591.03;5008821;28;20232;-45
2024/01/31 01:25:21;;;;;;;4.93;1.08;;;;;;;4.66;100.00;102591.91;5009339;28;20231;-45
2024/01/31 01:27:50;;;;;;;2.13;1.10;;;;;;;4.60;100.00;102599.78;5010442;28;20564;-47
2024/01/31 01:30:20;;;;;;;8.93;1.20;;;;;;;4.65;100.00;102604.25;4997882;28;20188;-46
2024/01/31 01:32:46;;;;;;;5.03;1.38;;;;;;;4.60;100.00;102613.94;5009649;28;20226;-46
2024/01/31 01:35:13;;;;;;;6.38;1.95;;;;;;;4.60;100.00;102611.28;5010562;28;20176;-46
2024/01/31 01:37:39;;;;;;;6.00;1.35;;;;;;;4.59;100.00;102621.84;5009626;28;20319;-44
2024/01/31 01:40:06;;;;;;;6.63;1.42;;;;;;;4.54;100.00;102620.03;5011160;28;20184;-46
2024/01/31 01:42:40;;;;;;;3.22;1.20;;;;;;;4.58;100.00;102622.75;5008073;28;20224;-45
2024/01/31 01:45:05;;;;;;;4.03;1.10;;;;;;;4.63;100.00;102634.31;5009326;28;20188;-46
2024/01/31 01:47:31;;;;;;;4.90;1.48;;;;;;;4.63;100.00;102636.97;5009007;28;20220;-46
2024/01/31 01:49:57;;;;;;;3.47;1.25;;;;;;;4.60;100.00;102651.09;5008493;28;20180;-46
2024/01/31 01:52:24;;;;;;;3.85;1.17;;;;;;;4.60;100.00;102642.25;5009339;28;20196;-44
2024/01/31 01:54:50;;;;;;;6.82;1.38;;;;;;;4.57;100.00;102652.78;4986410;28;20504;-45
2024/01/31 01:57:16;;;;;;;6.47;1.27;;;;;;;4.56;100.00;102651.03;5011085;28;20204;-42
2024/01/31 01:59:42;;;;;;;10.80;1.63;;;;;;;4.63;100.00;102648.47;5007934;28;20263;-43
2024/01/31 02:02:08;;;;;;;5.80;1.45;;;;;;;4.60;100.00;102652.88;5008981;28;20218;-45
2024/01/31 02:04:34;;;;;;;8.60;1.63;;;;;;;4.64;100.00;102638.78;5001671;28;20195;-43
2024/01/31 02:07:00;;;;;;;6.78;1.70;;;;;;;4.55;100.00;102639.53;5007744;28;20209;-46
2024/01/31 02:09:26;;;;;;;3.85;1.45;;;;;;;4.56;100.00;102648.38;5008574;28;20189;-46
2024/01/31 02:11:52;;;;;;;6.47;1.65;;;;;;;4.52;100.00;102650.97;4987290;28;20215;-46
2024/01/31 02:14:18;;;;;;;5.00;1.40;;;;;;;4.58;100.00;102655.50;5008416;28;20468;-44
2024/01/31 02:16:44;;;;;;;9.00;2.35;;;;;;;4.54;100.00;102648.34;5010458;28;20215;-44
2024/01/31 02:19:10;;;;;;;3.67;1.65;;;;;;;4.58;100.00;102644.88;5009518;28;20185;-46
2024/01/31 02:21:39;;;;;;;7.22;2.15;;;;;;;4.52;100.00;102656.25;5008175;28;20258;-45
2024/01/31 02:24:05;;;;;;;7.05;2.17;;;;;;;4.53;100.00;102668.69;5008829;28;20181;-45
2024/01/31 02:26:31;;;;;;;7.57;2.22;;;;;;;4.57;100.00;102658.09;5010796;28;20626;-44
2024/01/31 02:28:56;;;;;;;7.63;1.98;;;;;;;4.47;100.00;102665.03;5008351;28;20185;-46
2024/01/31 02:31:22;;;;;;;13.30;2.63;;;;;;;4.42;100.00;102664.97;5008496;28;20192;-45
2024/01/31 02:33:47;;;;;;;9.25;1.83;;;;;;;4.40;100.00;102668.47;4991319;28;20548;-45
2024/01/31 02:36:13;;;;;;;11.00;2.22;;;;;;;4.42;100.00;102664.09;5008521;28;20205;-44
2024/01/31 02:38:38;;;;;;;8.30;1.60;;;;;;;4.35;100.00;102668.38;5009175;28;20548;-45
2024/01/31 02:41:04;;;;;;;7.22;1.90;;;;;;;4.39;100.00;102679.94;5008689;28;20541;-45
2024/01/31 02:43:29;;;;;;;7.55;1.95;;;;;;;4.38;100.00;102680.81;5007815;28;20267;-45
2024/01/31 02:45:55;;;;;;;7.57;2.63;;;;;;;4.27;100.00;102683.28;5009911;28;20207;-45
2024/01/31 02:48:20;;;;;;;10.98;2.08;;;;;;;4.25;100.00;102687.66;5008882;28;20260;-46
2024/01/31 02:50:46;;;;;;;8.35;1.85;;;;;;;4.22;100.00;102682.28;5009159;28;20202;-44
2024/01/31 02:53:11;;;;;;;6.45;1.88;;;;;;;4.20;100.00;102684.00;5008123;28;20677;-44
2024/01/31 02:55:37;;;;;;;10.48;2.22;;;;;;;4.24;100.00;102680.56;5008551;28;20571;-46
2024/01/31 02:58:03;;;;;;;7.22;1.60;;;;;;;4.24;100.00;102689.44;5007360;28;20236;-46
2024/01/31 03:00:28;;;;;;;8.52;1.52;;;;;;;4.24;100.00;102699.13;5012295;28;20179;-44
2024/01/31 03:02:54;;;;;;;8.45;1.50;;;;;;;4.21;100.00;102689.34;5013791;28;20243;-44
2024/01/31 03:05:19;;;;;;;8.60;1.60;;;;;;;4.22;100.00;102690.25;5012535;28;20180;-44
2024/01/31 03:07:45;;;;;;;9.35;1.67;;;;;;;4.18;100.00;102691.09;5012873;28;20212;-47
2024/01/31 03:10:10;;;;;;;7.72;1.65;;;;;;;4.23;100.00;102702.66;5012293;28;20188;-45
2024/01/31 03:12:36;;;;;;;10.95;2.33;;;;;;;4.22;100.00;102682.28;4993852;28;20655;-44
2024/01/31 03:15:02;;;;;;;9.07;1.52;;;;;;;4.22;100.00;102695.53;4990446;28;20182;-43
2024/01/31 03:17:28;;;;;;;8.50;1.98;;;;;;;4.12;100.00;102702.47;5012925;28;20200;-44
2024/01/31 03:19:53;;;;;;;9.40;1.45;;;;;;;4.20;100.00;102698.19;5011495;28;20264;-43
2024/01/31 03:22:19;;;;;;;11.00;1.73;;;;;;;4.21;100.00;102697.31;5012007;28;20215;-44
2024/01/31 03:24:44;;;;;;;4.20;1.17;;;;;;;4.12;100.00;102691.84;5012298;28;20537;-44
2024/01/31 03:27:10;;;;;;;8.10;1.02;;;;;;;4.13;100.00;102705.16;5012304;28;20200;-46
2024/01/31 03:29:36;;;;;;;8.73;1.60;;;;;;;4.19;100.00;102698.16;5011486;28;20211;-45
2024/01/31 03:32:02;;;;;;;4.90;1.10;;;;;;;4.10;100.00;102709.50;5011984;28;20187;-44
2024/01/31 03:34:28;;;;;;;3.92;1.00;;;;;;;4.14;100.00;102700.72;5011487;28;20177;-45
2024/01/31 03:36:55;;;;;;;5.63;1.42;;;;;;;4.05;100.00;102705.88;5011761;28;20247;-43
2024/01/31 03:39:20;;;;;;;6.10;1.15;;;;;;;4.06;100.00;102699.69;5011158;28;20284;-46
2024/01/31 03:41:46;;;;;;;3.97;1.20;;;;;;;4.01;100.00;102699.59;5012999;28;20283;-45
2024/01/31 03:44:14;;;;;;;7.28;1.58;;;;;;;4.03;100.00;102703.19;5011579;28;20189;-44
2024/01/31 03:46:40;;;;;;;14.70;1.63;;;;;;;4.07;100.00;102710.34;5011753;28;20294;-45
2024/01/31 03:49:05;;;;;;;7.35;1.20;;;;;;;4.06;100.00;102707.66;5010969;28;20252;-46
2024/01/31 03:51:31;;;;;;;5.50;1.23;;;;;;;4.08;100.00;102709.47;5011203;28;20199;-44
2024/01/31 03:53:56;;;;;;;8.13;1.40;;;;;;;4.01;100.00;102725.25;5012452;28;20295;-44
2024/01/31 03:56:22;;;;;;;11.80;1.38;;;;;;;3.97;100.00;102737.53;4988807;28;20307;-43
2024/01/31 03:58:48;;;;;;;5.30;0.80;;;;;;;3.98;100.00;102736.69;5014301;28;20259;-44
2024/01/31 04:01:17;;;;;;;5.18;1.05;;;;;;;4.05;100.00;102743.00;5010518;28;20180;-44
2024/01/31 04:03:44;;;;;;;8.88;1.30;;;;;;;4.08;100.00;102743.94;5010057;28;20638;-45
2024/01/31 04:06:11;;;;;;;4.88;1.20;;;;;;;4.10;100.00;102757.25;4984607;28;20619;-45
2024/01/31 04:08:37;;;;;;;9.45;1.85;;;;;;;4.09;100.00;102760.78;5012356;28;20263;-44
2024/01/31 04:11:03;;;;;;;12.27;1.55;;;;;;;4.11;100.00;102770.53;5010659;28;20192;-44
2024/01/31 04:13:28;;;;;;;6.65;2.08;;;;;;;4.03;100.00;102760.66;5010958;28;20627;-45
2024/01/31 04:15:54;;;;;;;6.85;1.33;;;;;;;4.03;100.00;102758.88;5010117;28;20184;-44
2024/01/31 04:18:20;;;;;;;9.10;1.65;;;;;;;3.92;100.00;102763.97;5010959;28;20177;-44
2024/01/31 04:20:46;;;;;;;5.97;1.52;;;;;;;3.96;100.00;102772.88;5011696;28;20774;-45
2024/01/31 04:23:11;;;;;;;15.50;1.73;;;;;;;3.98;100.00;102767.59;5009727;28;20196;-45
2024/01/31 04:25:37;;;;;;;8.25;1.65;;;;;;;3.92;100.00;102771.91;5010556;28;20568;-43
2024/01/31 04:28:03;;;;;;;6.35;2.05;;;;;;;3.94;100.00;102782.56;5009969;28;20197;-45
2024/01/31 04:30:28;;;;;;;9.88;1.38;;;;;;;4.04;100.00;102779.22;5010603;28;20621;-43
2024/01/31 04:32:54;;;;;;;12.98;1.73;;;;;;;4.08;100.00;102782.84;5010470;28;20234;-46
2024/01/31 04:35:19;;;;;;;13.02;1.52;;;;;;;3.92;100.00;102779.88;5012501;28;20184;-45
2024/01/31 04:37:45;;;;;;;7.95;1.60;;;;;;;4.00;100.00;102777.41;5010086;28;20212;-46
2024/01/31 04:40:11;;;;;;;13.88;1.75;;;;;;;3.94;100.00;102771.06;5013716;28;20267;-44
2024/01/31 04:42:37;;;;;;;9.20;2.00;;;;;;;3.94;100.00;102779.03;5011166;28;20205;-44
2024/01/31 04:45:03;;;;;;;12.68;2.17;;;;;;;3.87;100.00;102770.03;5010142;28;20207;-43
2024/01/31 04:47:29;;;;;;;13.48;1.52;;;;;;;3.92;100.00;102781.63;5010252;28;20196;-43
2024/01/31 04:49:56;;;;;;;7.40;1.33;;;;;;;3.90;100.00;102778.06;5010414;28;20556;-44
2024/01/31 04:52:22;;;;;;;6.85;1.35;;;;;;;3.87;100.00;102783.28;5009736;28;20200;-43
2024/01/31 04:54:47;;;;;;;6.93;1.50;;;;;;;3.91;100.00;102766.56;5010110;28;20177;-44
2024/01/31 04:57:13;;;;;;;8.77;1.30;;;;;;;3.97;100.00;102772.00;5010680;28;20207;-44
2024/01/31 04:59:39;;;;;;;13.38;1.65;;;;;;;3.91;100.00;102767.50;5010600;28;20203;-43
2024/01/31 05:02:08;;;;;;;8.90;1.33;;;;;;;3.99;100.00;102769.41;5009392;28;20213;-44
2024/01/31 05:04:35;;;;;;;11.82;1.50;;;;;;;3.92;100.00;102768.38;5008950;28;20184;-43
2024/01/31 05:07:01;;;;;;;13.27;1.70;;;;;;;4.03;100.00;102750.03;5011265;28;20201;-44
2024/01/31 05:09:26;;;;;;;9.88;1.48;;;;;;;3.96;100.00;102761.38;4992880;28;20246;-43
2024/01/31 05:11:52;;;;;;;8.25;1.40;;;;;;;3.97;100.00;102776.44;5010020;28;20255;-44
2024/01/31 05:14:18;;;;;;;9.05;1.50;;;;;;;4.00;100.00;102777.41;5009627;28;20200;-43
2024/01/31 05:16:43;;;;;;;10.88;1.25;;;;;;;4.02;100.00;102770.34;5009165;28;20205;-45
2024/01/31 05:19:11;;;;;;;6.43;1.40;;;;;;;4.01;100.00;102772.97;5009013;28;20181;-50
2024/01/31 05:21:47;;;;;;;6.07;1.65;;;;;;;4.01;100.00;102767.69;5008147;28;20205;-44
2024/01/31 05:24:16;;;;;;;9.80;1.13;;;;;;;3.97;100.00;102766.72;5008429;28;20185;-44
2024/01/31 05:26:44;;;;;;;10.75;1.60;;;;;;;3.97;100.00;102763.16;5009615;28;20289;-44
2024/01/31 05:29:10;;;;;;;7.22;1.33;;;;;;;3.97;100.00;102765.81;5009425;28;20172;-45
2024/01/31 05:31:35;;;;;;;7.97;2.40;;;;;;;3.96;100.00;102766.66;5008750;28;20299;-45
2024/01/31 05:34:01;;;;;;;7.57;1.55;;;;;;;4.05;100.00;102765.09;5010737;28;20354;-45
2024/01/31 05:36:27;;;;;;;6.15;1.10;;;;;;;4.00;100.00;102769.44;5009371;28;20200;-44
2024/01/31 05:38:52;;;;;;;5.75;1.30;;;;;;;3.96;100.00;102764.00;4998274;28;20185;-46
2024/01/31 05:41:18;;;;;;;5.45;1.45;;;;;;;3.94;100.00;102771.06;5009347;28;20197;-46
2024/01/31 05:43:44;;;;;;;8.20;1.52;;;;;;;3.94;100.00;102776.38;5009500;28;20190;-43
2024/01/31 05:46:10;;;;;;;7.20;1.30;;;;;;;3.88;100.00;102778.03;5008477;28;20212;-45
2024/01/31 05:48:35;;;;;;;8.95;1.27;;;;;;;3.88;100.00;102774.47;5008671;28;20250;-45
2024/01/31 05:51:01;;;;;;;8.18;1.25;;;;;;;3.90;100.00;102780.72;5008586;28;20266;-45
2024/01/31 05:53:26;;;;;;;8.38;1.58;;;;;;;3.92;100.00;102786.94;5009380;28;20184;-45
2024/01/31 05:55:52;;;;;;;7.63;1.33;;;;;;;3.96;100.00;102780.84;5008854;28;20319;-46
2024/01/31 05:58:17;;;;;;;10.65;1.70;;;;;;;3.90;100.00;102776.28;5007717;28;20207;-45
2024/01/31 06:00:44;;;;;;;11.10;1.20;;;;;;;3.96;100.00;102774.63;5008576;28;20631;-46
2024/01/31 06:03:10;;;;;;;5.10;1.25;;;;;;;3.97;100.00;102779.97;5009128;28;20208;-43
2024/01/31 06:05:36;;;;;;;10.02;2.42;;;;;;;3.95;100.00;102781.69;5008561;28;20191;-45
2024/01/31 06:08:02;;;;;;;6.90;1.73;;;;;;;4.05;100.00;102785.44;5008624;28;20185;-45
2024/01/31 06:10:28;;;;;;;9.90;1.70;;;;;;;3.95;100.00;102784.34;5008341;28;20189;-43
2024/01/31 06:12:54;;;;;;;6.57;1.40;;;;;;;4.17;100.00;102792.75;5008622;28;20164;-44
2024/01/31 06:15:20;;;;;;;11.75;1.80;;;;;;;4.09;100.00;102795.25;5008580;28;20178;-46
2024/01/31 06:17:46;;;;;;;9.68;1.48;;;;;;;4.12;100.00;102801.50;5008090;28;20212;-45
2024/01/31 06:20:12;;;;;;;8.52;1.50;;;;;;;4.07;100.00;102789.91;5008427;28;20176;-45
2024/01/31 06:22:37;;;;;;;9.38;1.88;;;;;;;4.02;100.00;102795.97;5008862;28;20200;-47
2024/01/31 06:25:03;;;;;;;9.73;1.70;;;;;;;3.97;100.00;102789.69;5007121;28;20279;-46
2024/01/31 06:27:29;;;;;;;4.40;1.15;;;;;;;4.04;100.00;102804.84;5008982;28;20196;-46
2024/01/31 06:29:54;;;;;;;8.38;2.08;;;;;;;4.01;100.00;102807.47;5008186;28;20187;-43
2024/01/31 06:32:22;;;;;;;11.80;1.52;;;;;;;4.02;100.00;102815.41;5008115;28;20181;-45
2024/01/31 06:34:48;;;;;;;4.28;1.38;;;;;;;3.98;100.00;102805.66;5008063;28;20237;-44
2024/01/31 06:37:14;;;;;;;10.00;1.60;;;;;;;3.95;100.00;102809.97;5007636;28;20699;-43
2024/01/31 06:39:39;;;;;;;7.97;1.20;;;;;;;4.01;100.00;102797.75;5008126;28;20314;-45
2024/01/31 06:42:06;;;;;;;6.97;1.13;;;;;;;3.96;100.00;102802.06;5008153;28;20192;-45
2024/01/31 06:44:32;;;;;;;7.47;1.67;;;;;;;3.93;100.00;102807.28;5007610;28;20279;-43
2024/01/31 06:46:58;;;;;;;8.27;1.30;;;;;;;3.97;100.00;102811.78;5008122;28;20352;-45
2024/01/31 06:49:24;;;;;;;8.40;1.58;;;;;;;3.97;100.00;102824.16;5008931;28;20184;-45
2024/01/31 06:51:50;;;;;;;10.52;1.48;;;;;;;3.98;100.00;102821.56;5007596;28;20297;-43
2024/01/31 06:54:15;;;;;;;8.40;1.60;;;;;;;3.96;100.00;102807.38;5008792;28;20216;-46
2024/01/31 06:56:41;;;;;;;6.95;1.30;;;;;;;3.98;100.00;102820.63;5007856;28;20193;-44
2024/01/31 06:59:07;;;;;;;11.15;1.40;;;;;;;3.93;100.00;102796.66;5008626;28;20330;-45
2024/01/31 07:01:33;;;;;;;7.10;1.50;;;;;;;3.98;100.00;102802.06;5005740;28;20291;-44
2024/01/31 07:03:58;;;;;;;13.07;2.05;;;;;;;3.98;100.00;102804.72;5007361;28;20338;-44
2024/01/31 07:06:24;;;;;;;10.18;1.80;;;;;;;4.08;100.00;102810.25;4990393;28;20363;-44
2024/01/31 07:08:49;;;;;;;11.85;1.67;;;;;;;4.04;100.00;102818.13;5007998;28;20181;-45
2024/01/31 07:11:15;;;;;;;10.05;1.48;;;;;;;3.92;100.00;102816.13;5007498;28;20912;-46
2024/01/31 07:13:41;;;;;;;7.95;1.58;;;;;;;3.85;100.00;102807.13;5007815;28;20296;-45
2024/01/31 07:16:09;;;;;;;7.45;1.33;;;;;;;3.88;100.00;102808.94;5007940;28;20553;-46
2024/01/31 07:18:42;;;;;;;10.77;1.75;;;;;;;3.86;100.00;102808.03;5007753;28;20212;-45
2024/01/31 07:21:11;;;;;;;10.20;1.55;;;;;;;3.83;100.00;102805.31;5007376;28;20238;-41
2024/01/31 07:23:37;;;;;;;11.30;1.60;;;;;;;3.81;100.00;102809.69;5005713;28;20200;-44
2024/01/31 07:26:03;;;;;;;9.20;1.67;;;;;;;3.76;100.00;102811.31;5007015;28;20197;-44
2024/01/31 07:28:33;;;;;;;11.15;1.60;;;;;;;3.77;100.00;102800.75;5007545;28;20212;-43
2024/01/31 07:31:01;;;;;;;9.13;1.65;;;;;;;3.75;100.00;102798.94;5007180;28;20185;-45
2024/01/31 07:33:27;;;;;;;8.95;1.75;;;;;;;3.73;100.00;102796.25;5005831;28;20168;-46
2024/01/31 07:35:52;;;;;;;11.48;2.00;;;;;;;3.74;100.00;102800.72;5007396;28;20226;-41
2024/01/31 07:38:18;;;;;;;15.10;1.48;;;;;;;3.57;100.00;102795.03;5008398;28;20619;-45
2024/01/31 07:40:43;;;;;;;9.63;1.52;;;;;;;3.61;100.00;102791.59;5007428;28;20234;-46
2024/01/31 07:43:09;;;;;;;9.15;1.80;;;;;;;3.49;100.00;102793.97;4997445;28;20646;-47
2024/01/31 07:45:34;;;;;;;11.35;1.73;;;;;;;3.58;100.00;102817.13;4995593;28;20216;-41
2024/01/31 07:48:00;;;;;;;6.63;1.40;;;;;;;3.53;100.00;102822.31;4979542;28;20725;-43
2024/01/31 07:50:25;;;;;;;7.32;1.40;;;;;;;3.56;100.00;102817.06;4995485;28;20180;-43
2024/01/31 07:52:51;;;;;;;9.00;1.35;;;;;;;3.48;100.00;102819.56;5007047;28;20204;-45
2024/01/31 07:55:17;;;;;;;10.95;1.63;;;;;;;3.45;100.00;102821.25;5011247;28;20243;-45
2024/01/31 07:57:43;;;;;;;8.23;2.40;;;;;;;3.65;100.00;102822.63;5010767;28;20213;-44
2024/01/31 08:00:09;;;;;;;8.13;1.65;;;;;;;3.55;100.00;102836.50;5012377;28;20177;-45
2024/01/31 08:02:34;;;;;;;15.63;2.03;;;;;;;3.49;100.00;102836.34;5013291;28;20292;-44
2024/01/31 08:05:00;;;;;;;15.65;2.15;;;;;;;3.50;100.00;102838.16;5011364;28;20263;-44
2024/01/31 08:07:26;;;;;;;14.15;2.25;;;;;;;3.54;100.00;102821.44;5009470;28;20706;-45
2024/01/31 08:09:52;;;;;;;16.02;2.08;;;;;;;3.51;100.00;102811.69;5011611;28;20184;-44
2024/01/31 08:12:17;;;;;;;7.80;1.58;;;;;;;3.51;100.00;102792.25;5010923;28;20183;-44
2024/01/31 08:14:43;;;;;;;9.48;1.55;;;;;;;3.58;100.00;102791.50;5011328;28;20196;-45
2024/01/31 08:17:09;;;;;;;6.45;1.63;;;;;;;3.68;100.00;102817.38;5013429;28;20288;-45
2024/01/31 08:19:35;;;;;;;11.30;2.08;;;;;;;3.71;100.00;102809.47;5011612;28;20235;-47
2024/01/31 08:22:01;;;;;;;6.18;1.50;;;;;;;3.76;100.00;102806.03;5011112;28;20243;-44
2024/01/31 08:24:26;;;;;;;7.70;1.70;;;;;;;3.87;100.00;102804.50;5010234;28;20189;-44
2024/01/31 08:26:52;;;;;;;9.55;1.92;;;;;;;3.87;100.00;102813.38;5010771;28;20204;-44
2024/01/31 08:29:17;;;;;;;15.88;2.28;;;;;;;3.86;100.00;102826.59;5010474;28;20211;-45
2024/01/31 08:31:43;;;;;;;7.93;2.78;;;;;;;3.87;100.00;102821.31;5012123;28;20188;-43
2024/01/31 08:34:10;;;;;;;9.10;1.75;;;;;;;3.90;100.00;102817.84;5010421;28;20181;-45
2024/01/31 08:36:36;;;;;;;8.63;1.63;;;;;;;3.95;100.00;102824.13;5011089;28;20196;-44
2024/01/31 08:39:02;;;;;;;12.57;1.77;;;;;;;3.99;100.00;102827.75;5011373;28;20277;-45
2024/01/31 08:41:28;;;;;;;12.80;2.03;;;;;;;4.10;100.00;102829.75;5010898;28;20191;-44
2024/01/31 08:43:53;;;;;;;7.88;1.60;;;;;;;4.20;99.93;102814.00;5011478;28;20579;-47
2024/01/31 08:46:19;;;;;;;9.80;2.10;;;;;;;4.20;99.55;102820.25;5012750;28;20725;-43
2024/01/31 08:48:44;;;;;;;12.00;1.95;;;;;;;4.33;99.15;102813.41;5012170;28;20544;-45
2024/01/31 08:51:10;;;;;;;10.90;1.48;;;;;;;4.40;98.66;102811.78;5012029;28;20184;-44
2024/01/31 08:53:35;;;;;;;7.93;1.67;;;;;;;4.58;98.72;102806.81;5010697;28;20177;-45
2024/01/31 08:56:01;;;;;;;9.82;1.85;;;;;;;4.53;98.03;102796.09;5011574;28;20568;-45
2024/01/31 08:58:26;;;;;;;5.80;1.38;;;;;;;4.61;97.20;102782.06;5011640;28;20185;-45
2024/01/31 09:00:52;;;;;;;8.82;1.60;;;;;;;4.73;96.63;102783.19;5011442;28;20173;-45
2024/01/31 09:03:18;;;;;;;11.30;1.85;;;;;;;4.71;96.44;102773.41;5011672;28;20279;-47
2024/01/31 09:05:43;;;;;;;10.07;1.48;;;;;;;4.77;95.60;102767.28;4993754;28;20188;-44
2024/01/31 09:08:09;;;;;;;9.00;1.55;;;;;;;4.85;95.19;102770.97;5009816;28;20539;-45
2024/01/31 09:10:34;;;;;;;7.80;1.50;;;;;;;5.15;95.32;102786.53;5009140;28;20184;-46
2024/01/31 09:13:00;;;;;;;7.65;1.55;;;;;;;5.07;94.47;102770.47;5010101;28;20165;-44
2024/01/31 09:15:25;;;;;;;8.18;1.33;;;;;;;5.08;94.09;102769.59;5015051;28;20307;-45
2024/01/31 09:17:52;;;;;;;12.27;1.48;;;;;;;5.03;93.31;102771.28;5011511;28;20659;-44
2024/01/31 09:20:18;;;;;;;6.63;1.63;;;;;;;5.09;93.11;102763.38;5010677;28;20196;-46
2024/01/31 09:22:43;;;;;;;10.90;2.47;;;;;;;4.83;93.02;102763.00;5009011;28;20767;-45
2024/01/31 09:25:10;;;;;;;11.43;1.50;;;;;;;5.08;93.01;102758.97;5010719;28;20173;-45
2024/01/31 09:27:36;;;;;;;11.00;1.92;;;;;;;5.23;92.68;102760.09;5012161;28;20200;-46
2024/01/31 09:30:03;;;;;;;3.90;1.10;;;;;;;5.41;92.49;102764.78;5011972;28;20661;-45
2024/01/31 09:32:29;;;;;;;9.23;1.67;;;;;;;5.34;92.10;102750.50;5011838;28;20175;-45
2024/01/31 09:34:54;;;;;;;9.45;1.52;;;;;;;5.26;92.10;102730.88;5009832;28;20535;-46
2024/01/31 09:37:20;;;;;;;7.57;1.10;;;;;;;5.25;91.68;102716.72;5008696;28;20315;-44
2024/01/31 09:39:45;;;;;;;9.00;1.40;;;;;;;5.27;91.70;102719.38;5009000;28;20659;-46
2024/01/31 09:42:11;;;;;;;11.95;2.03;;;;;;;5.34;91.32;102711.50;5008314;28;20610;-46
2024/01/31 09:44:37;;;;;;;11.77;1.58;;;;;;;5.19;91.83;102711.28;5009258;28;20230;-43
2024/01/31 09:47:05;;;;;;;5.63;1.50;;;;;;;5.52;91.75;102702.88;5008988;28;20240;-45
2024/01/31 09:49:30;;;;;;;9.15;1.73;;;;;;;5.37;91.41;102703.56;5009243;28;20179;-46
2024/01/31 09:51:59;;;;;;;7.65;1.38;;;;;;;5.42;91.02;102694.75;5008792;28;20651;-46
2024/01/31 09:54:26;;;;;;;13.80;1.85;;;;;;;5.39;90.84;102702.72;5009603;28;20212;-46
2024/01/31 09:56:52;;;;;;;11.95;2.15;;;;;;;5.39;91.10;102703.59;5010914;28;20204;-47
2024/01/31 09:59:18;;;;;;;11.48;1.77;;;;;;;5.44;90.70;102712.50;5009641;28;20239;-46
2024/01/31 10:01:44;;;;;;;6.10;1.60;;;;;;;5.56;90.76;102698.50;5010160;28;20197;-45
2024/01/31 10:04:10;;;;;;;7.88;1.73;;;;;;;5.52;90.14;102704.66;5007504;28;20199;-46
2024/01/31 10:06:35;;;;;;;7.57;1.45;;;;;;;5.39;89.55;102689.44;5009045;28;20589;-44
2024/01/31 10:09:03;;;;;;;7.22;1.58;;;;;;;5.54;90.00;102689.63;5007989;28;20176;-46
2024/01/31 10:11:30;;;;;;;6.20;2.28;;;;;;;5.37;89.54;102690.28;5012819;28;20192;-46
2024/01/31 10:13:56;;;;;;;4.63;1.30;;;;;;;5.58;89.98;102697.66;5007292;28;20288;-46
2024/01/31 10:16:21;;;;;;;9.98;1.40;;;;;;;5.57;89.86;102681.66;5009088;28;20200;-46
2024/01/31 10:18:47;;;;;;;8.27;1.50;;;;;;;5.52;89.27;102672.75;5008190;28;20670;-44
2024/01/31 10:21:12;;;;;;;7.85;1.73;;;;;;;5.41;88.90;102664.63;5008025;28;20212;-46
2024/01/31 10:23:38;;;;;;;7.07;1.40;;;;;;;5.52;88.88;102670.09;5010286;28;20299;-45
2024/01/31 10:26:05;;;;;;;7.45;1.75;;;;;;;5.36;88.56;102655.72;5009358;28;20686;-44
2024/01/31 10:28:31;;;;;;;5.15;1.10;;;;;;;5.42;88.62;102636.28;5010443;28;20213;-45
2024/01/31 10:30:57;;;;;;;8.27;1.63;;;;;;;5.40;88.44;102648.66;5008025;28;20219;-45
2024/01/31 10:33:23;;;;;;;10.38;1.98;;;;;;;5.35;88.35;102645.94;5008830;28;20275;-45
2024/01/31 10:35:49;;;;;;;10.80;1.63;;;;;;;5.52;88.11;102644.38;5008741;28;20226;-46
2024/01/31 10:38:15;;;;;;;11.43;1.90;;;;;;;5.10;87.88;102650.06;5009656;28;20899;-46
2024/01/31 10:40:42;;;;;;;7.65;1.50;;;;;;;5.07;87.89;102665.94;5008220;28;20550;-45
2024/01/31 10:43:11;;;;;;;8.23;1.60;;;;;;;4.94;88.07;102664.88;4991146;28;20236;-44
2024/01/31 10:45:38;;;;;;;8.65;1.63;;;;;;;5.01;87.91;102660.53;5007852;28;20185;-44
2024/01/31 10:48:04;;;;;;;8.02;1.85;;;;;;;5.02;88.60;102665.88;5007899;28;20290;-44
2024/01/31 10:50:31;;;;;;;9.70;2.13;;;;;;;4.89;88.22;102682.50;5007638;28;20381;-44
2024/01/31 10:52:58;;;;;;;9.65;1.88;;;;;;;4.85;88.89;102672.72;5008152;28;20173;-44
2024/01/31 10:55:24;;;;;;;12.63;1.83;;;;;;;4.98;89.04;102682.66;5011724;28;20640;-44
2024/01/31 10:57:50;;;;;;;3.95;1.40;;;;;;;4.84;88.99;102676.25;5008088;28;20212;-45
2024/01/31 11:00:28;;;;;;;4.75;1.25;;;;;;;4.83;89.29;102672.72;5007746;28;20220;-45
2024/01/31 11:02:56;;;;;;;8.00;1.40;;;;;;;4.78;89.36;102655.78;5007247;28;20769;-46
2024/01/31 11:05:22;;;;;;;14.75;1.67;;;;;;;4.85;88.94;102657.66;5007624;28;20268;-45
2024/01/31 11:07:48;;;;;;;8.02;1.65;;;;;;;4.92;89.33;102650.72;5009232;28;20307;-45
2024/01/31 11:10:22;;;;;;;4.55;1.48;;;;;;;5.02;89.21;102663.22;5008709;28;20197;-44
2024/01/31 11:13:01;;;;;;;11.52;1.55;;;;;;;4.94;88.94;102662.22;5004324;28;20280;-47
2024/01/31 11:15:31;;;;;;;10.25;1.80;;;;;;;4.97;89.13;102667.59;5007413;28;20740;-46
2024/01/31 11:18:10;;;;;;;10.02;1.98;;;;;;;5.06;89.22;102674.81;5006833;28;20219;-47